Time;durP1;ratioP1;P1;durP2;ratioP2;P2;SDS_P1;SDS_P2;PMS_P1;PMS_P2;Temp;Humidity;BMP_temperature;BMP_pressure;BME280_temperature;BME280_humidity;BME280_pressure;Samples;Min_cycle;Max_cycle;Signal;HPM_P1;HPM_P2
2023/01/21 00:02:31;;;;;;;0.70;0.70;;;;;;;;;;6183339;23;20245;-74
2023/01/21 00:04:58;;;;;;;0.68;0.68;;;;;;;;;;6182840;23;20193;-73
2023/01/21 00:07:25;;;;;;;0.60;0.60;;;;;;;;;;6157596;23;20190;-73
2023/01/21 00:09:52;;;;;;;0.70;0.70;;;;;;;;;;6184052;23;20161;-73
2023/01/21 00:12:19;;;;;;;0.63;0.63;;;;;;;;;;6183360;23;20150;-73
2023/01/21 00:14:46;;;;;;;0.60;0.52;;;;;;;;;;6184454;23;20483;-71
2023/01/21 00:17:13;;;;;;;0.70;0.70;;;;;;;;;;6184300;23;20161;-75
2023/01/21 00:19:41;;;;;;;0.70;0.70;;;;;;;;;;6184450;23;20186;-75
2023/01/21 00:22:13;;;;;;;1.13;1.05;;;;;;;;;;6184771;23;20150;-75
2023/01/21 00:24:41;;;;;;;0.70;0.70;;;;;;;;;;6184458;23;20166;-74
2023/01/21 00:27:07;;;;;;;1.40;1.30;;;;;;;;;;6184137;23;20261;-74
2023/01/21 00:29:35;;;;;;;0.60;0.50;;;;;;;;;;6207112;23;20170;-73
2023/01/21 00:32:02;;;;;;;0.70;0.70;;;;;;;;;;6156948;23;20171;-74
2023/01/21 00:34:30;;;;;;;0.70;0.70;;;;;;;;;;6206744;23;20277;-75
2023/01/21 00:37:01;;;;;;;0.70;0.70;;;;;;;;;;6183238;23;20204;-75
2023/01/21 00:39:29;;;;;;;0.60;0.60;;;;;;;;;;6186040;23;20158;-74
2023/01/21 00:41:55;;;;;;;0.75;0.75;;;;;;;;;;6185866;23;20181;-75
2023/01/21 00:44:23;;;;;;;0.60;0.60;;;;;;;;;;6185685;23;20177;-74
2023/01/21 00:46:50;;;;;;;0.65;0.65;;;;;;;;;;6185510;23;20182;-75
2023/01/21 00:49:18;;;;;;;0.80;0.80;;;;;;;;;;6184484;23;20194;-75
2023/01/21 00:51:45;;;;;;;0.60;0.57;;;;;;;;;;6185116;23;20146;-73
2023/01/21 00:54:14;;;;;;;0.70;0.70;;;;;;;;;;6186354;23;20529;-74
2023/01/21 00:56:41;;;;;;;0.90;0.90;;;;;;;;;;6186126;23;20150;-77
2023/01/21 00:59:08;;;;;;;0.70;0.70;;;;;;;;;;6186512;23;20162;-75
2023/01/21 01:01:37;;;;;;;0.77;0.77;;;;;;;;;;6184842;23;20163;-74
2023/01/21 01:04:07;;;;;;;0.60;0.60;;;;;;;;;;6186278;23;20208;-75
2023/01/21 01:06:34;;;;;;;0.70;0.70;;;;;;;;;;6185832;23;20182;-76
2023/01/21 01:09:01;;;;;;;0.70;0.70;;;;;;;;;;6185602;23;20237;-76
2023/01/21 01:11:30;;;;;;;0.60;0.50;;;;;;;;;;6185853;23;20151;-75
2023/01/21 01:13:58;;;;;;;0.60;0.60;;;;;;;;;;6183447;23;20162;-75
2023/01/21 01:16:25;;;;;;;0.60;0.60;;;;;;;;;;6159848;23;20170;-73
2023/01/21 01:18:52;;;;;;;0.60;0.50;;;;;;;;;;6186266;23;20216;-75
2023/01/21 01:21:20;;;;;;;0.73;0.73;;;;;;;;;;6185904;23;20178;-73
2023/01/21 01:23:47;;;;;;;0.60;0.60;;;;;;;;;;6157848;23;20591;-76
2023/01/21 01:26:15;;;;;;;0.60;0.60;;;;;;;;;;6185517;23;20165;-76
2023/01/21 01:28:44;;;;;;;1.02;1.02;;;;;;;;;;6185763;23;20574;-76
2023/01/21 01:31:12;;;;;;;0.60;0.60;;;;;;;;;;6184866;23;20571;-74
2023/01/21 01:33:42;;;;;;;0.70;0.60;;;;;;;;;;6185944;23;20159;-76
2023/01/21 01:36:10;;;;;;;1.08;1.08;;;;;;;;;;6184902;23;20166;-76
2023/01/21 01:38:37;;;;;;;0.70;0.70;;;;;;;;;;6186067;23;20157;-76
2023/01/21 01:41:05;;;;;;;1.50;1.40;;;;;;;;;;6209410;23;20657;-76
2023/01/21 01:43:50;;;;;;;0.70;0.70;;;;;;;;;;6185616;23;20351;-76
2023/01/21 01:46:17;;;;;;;0.60;0.60;;;;;;;;;;6159383;23;20503;-76
2023/01/21 01:48:46;;;;;;;1.25;1.25;;;;;;;;;;6185640;23;20182;-75
2023/01/21 01:51:15;;;;;;;0.60;0.60;;;;;;;;;;6184444;23;20147;-75
2023/01/21 01:53:43;;;;;;;0.60;0.60;;;;;;;;;;6159078;23;20178;-75
2023/01/21 01:56:10;;;;;;;0.60;0.60;;;;;;;;;;6185516;23;20181;-75
2023/01/21 01:58:38;;;;;;;0.60;0.60;;;;;;;;;;6185864;23;20499;-75
2023/01/21 02:01:06;;;;;;;0.60;0.60;;;;;;;;;;6159288;23;20174;-75
2023/01/21 02:03:44;;;;;;;0.70;0.70;;;;;;;;;;6185545;23;20151;-75
2023/01/21 02:06:12;;;;;;;0.60;0.60;;;;;;;;;;6183595;23;20151;-75
2023/01/21 02:08:39;;;;;;;0.60;0.60;;;;;;;;;;6185637;23;20174;-75
2023/01/21 02:11:10;;;;;;;0.60;0.60;;;;;;;;;;6185774;23;20162;-75
2023/01/21 02:13:39;;;;;;;0.60;0.60;;;;;;;;;;6185784;23;20201;-76
2023/01/21 02:16:18;;;;;;;0.90;0.90;;;;;;;;;;6183447;23;20651;-76
2023/01/21 02:18:56;;;;;;;0.70;0.70;;;;;;;;;;6184078;23;20194;-75
2023/01/21 02:21:44;;;;;;;0.60;0.60;;;;;;;;;;6208868;23;20178;-76
2023/01/21 02:24:31;;;;;;;0.70;0.70;;;;;;;;;;6185719;23;20162;-75
2023/01/21 02:27:22;;;;;;;0.85;0.85;;;;;;;;;;6134291;23;20245;-75
2023/01/21 02:30:10;;;;;;;0.60;0.60;;;;;;;;;;6184160;23;20228;-76
2023/01/21 02:32:57;;;;;;;0.70;0.70;;;;;;;;;;6184393;23;20154;-76
2023/01/21 02:35:31;;;;;;;0.60;0.60;;;;;;;;;;6168986;23;20657;-75
2023/01/21 02:38:05;;;;;;;0.70;0.70;;;;;;;;;;6184037;23;20579;-76
2023/01/21 02:40:37;;;;;;;0.60;0.50;;;;;;;;;;6183916;23;20149;-76
2023/01/21 02:43:12;;;;;;;0.60;0.55;;;;;;;;;;6185136;23;20174;-76
2023/01/21 02:45:49;;;;;;;0.70;0.70;;;;;;;;;;6184054;23;20186;-75
2023/01/21 02:48:27;;;;;;;0.73;0.73;;;;;;;;;;6184300;23;20626;-75
2023/01/21 02:51:04;;;;;;;0.60;0.60;;;;;;;;;;6160631;23;20162;-75
2023/01/21 02:53:35;;;;;;;0.75;0.75;;;;;;;;;;6183796;23;20189;-75
2023/01/21 02:56:11;;;;;;;0.90;0.90;;;;;;;;;;6184101;23;20190;-75
2023/01/21 02:58:42;;;;;;;0.70;0.70;;;;;;;;;;6158773;23;20269;-76
2023/01/21 03:01:12;;;;;;;0.70;0.70;;;;;;;;;;6183335;23;20598;-76
2023/01/21 03:03:49;;;;;;;0.65;0.65;;;;;;;;;;6208101;23;20177;-76
2023/01/21 03:06:41;;;;;;;0.60;0.60;;;;;;;;;;6184165;23;20154;-75
2023/01/21 03:09:20;;;;;;;0.60;0.60;;;;;;;;;;6158239;23;20715;-75
2023/01/21 03:11:55;;;;;;;0.80;0.80;;;;;;;;;;6159025;23;20170;-75
2023/01/21 03:17:20;;;;;;;0.60;0.60;;;;;;;;;;6185061;23;20142;-74
2023/01/21 03:19:57;;;;;;;0.80;0.80;;;;;;;;;;6183613;23;20571;-74
2023/01/21 03:22:33;;;;;;;0.70;0.70;;;;;;;;;;6185065;23;20173;-73
2023/01/21 03:25:05;;;;;;;0.60;0.60;;;;;;;;;;6183571;23;20959;-73
2023/01/21 03:27:35;;;;;;;0.60;0.60;;;;;;;;;;6158156;23;20190;-73
2023/01/21 03:30:13;;;;;;;0.75;0.75;;;;;;;;;;6185737;23;20154;-73
2023/01/21 03:32:45;;;;;;;1.00;1.00;;;;;;;;;;6209140;23;20836;-73
2023/01/21 03:35:16;;;;;;;0.70;0.70;;;;;;;;;;6184969;23;20182;-74
2023/01/21 03:37:51;;;;;;;0.90;0.90;;;;;;;;;;6209036;23;20508;-74
2023/01/21 03:40:26;;;;;;;1.65;1.55;;;;;;;;;;6182684;23;20170;-74
2023/01/21 03:42:58;;;;;;;0.70;0.70;;;;;;;;;;6184975;23;20166;-74
2023/01/21 03:45:33;;;;;;;0.70;0.70;;;;;;;;;;6182793;23;20171;-74
2023/01/21 03:48:07;;;;;;;0.70;0.70;;;;;;;;;;6185008;23;20485;-74
2023/01/21 03:50:38;;;;;;;0.80;0.80;;;;;;;;;;6183772;23;20254;-74
2023/01/21 03:53:13;;;;;;;0.90;0.90;;;;;;;;;;6184565;23;20154;-74
2023/01/21 03:55:44;;;;;;;0.77;0.77;;;;;;;;;;6184177;23;20237;-75
2023/01/21 03:58:18;;;;;;;0.70;0.70;;;;;;;;;;6184511;23;20225;-74
2023/01/21 04:00:56;;;;;;;0.70;0.70;;;;;;;;;;6184885;23;20159;-73
2023/01/21 04:03:28;;;;;;;0.70;0.70;;;;;;;;;;6157917;23;20257;-75
2023/01/21 04:06:19;;;;;;;0.82;0.82;;;;;;;;;;6178308;23;20234;-74
2023/01/21 04:08:47;;;;;;;0.80;0.80;;;;;;;;;;6154823;23;20171;-74
2023/01/21 04:11:15;;;;;;;0.70;0.70;;;;;;;;;;6153424;23;20494;-75
2023/01/21 04:13:41;;;;;;;0.68;0.68;;;;;;;;;;6152947;23;20170;-74
2023/01/21 04:16:08;;;;;;;0.70;0.70;;;;;;;;;;6153736;23;20167;-75
2023/01/21 04:18:36;;;;;;;0.98;0.98;;;;;;;;;;6178033;23;20171;-74
2023/01/21 04:21:03;;;;;;;0.80;0.80;;;;;;;;;;6155242;23;20155;-74
2023/01/21 04:23:30;;;;;;;0.80;0.80;;;;;;;;;;6154605;23;20151;-74
2023/01/21 04:25:56;;;;;;;0.80;0.80;;;;;;;;;;6153369;23;20607;-73
2023/01/21 04:28:24;;;;;;;0.60;0.60;;;;;;;;;;6153306;23;20653;-74
2023/01/21 04:30:51;;;;;;;0.75;0.75;;;;;;;;;;6155160;23;20171;-74
2023/01/21 04:33:18;;;;;;;0.70;0.70;;;;;;;;;;6128431;23;20177;-73
2023/01/21 04:35:45;;;;;;;0.90;0.90;;;;;;;;;;6128640;23;20220;-74
2023/01/21 04:38:14;;;;;;;0.68;0.63;;;;;;;;;;6154838;23;20151;-73
2023/01/21 04:40:45;;;;;;;0.70;0.70;;;;;;;;;;6153140;23;20197;-72
2023/01/21 04:43:11;;;;;;;0.90;0.90;;;;;;;;;;6152609;23;20167;-73
2023/01/21 04:45:41;;;;;;;0.90;0.90;;;;;;;;;;6177881;23;20167;-72
2023/01/21 04:48:08;;;;;;;0.75;0.75;;;;;;;;;;6153170;23;20241;-72
2023/01/21 04:50:35;;;;;;;0.75;0.75;;;;;;;;;;6153345;23;20191;-72
2023/01/21 04:53:02;;;;;;;0.80;0.80;;;;;;;;;;6128376;23;20155;-73
2023/01/21 04:55:29;;;;;;;0.70;0.70;;;;;;;;;;6128602;23;20219;-73
2023/01/21 04:57:56;;;;;;;0.90;0.90;;;;;;;;;;6153291;23;20167;-73
2023/01/21 05:00:23;;;;;;;0.60;0.60;;;;;;;;;;6154213;23;20202;-73
2023/01/21 05:02:51;;;;;;;0.80;0.80;;;;;;;;;;6152626;23;20561;-72
2023/01/21 05:05:18;;;;;;;0.70;0.70;;;;;;;;;;6196999;23;20206;-73
2023/01/21 05:07:45;;;;;;;0.80;0.80;;;;;;;;;;6182755;23;20186;-75
2023/01/21 05:10:14;;;;;;;0.60;0.60;;;;;;;;;;6184074;23;20163;-73
2023/01/21 05:12:41;;;;;;;0.98;0.98;;;;;;;;;;6182720;23;20497;-74
2023/01/21 05:15:08;;;;;;;0.60;0.60;;;;;;;;;;6184381;23;20201;-74
2023/01/21 05:17:35;;;;;;;0.70;0.70;;;;;;;;;;6184452;23;20151;-75
2023/01/21 05:20:04;;;;;;;0.75;0.75;;;;;;;;;;6182344;23;20589;-74
2023/01/21 05:22:32;;;;;;;0.80;0.80;;;;;;;;;;6184004;23;20520;-75
2023/01/21 05:24:59;;;;;;;0.75;0.75;;;;;;;;;;6184995;23;20233;-73
2023/01/21 05:27:26;;;;;;;0.88;0.88;;;;;;;;;;6209585;23;20171;-73
2023/01/21 05:29:53;;;;;;;0.60;0.55;;;;;;;;;;6185737;23;20146;-74
2023/01/21 05:32:20;;;;;;;0.70;0.70;;;;;;;;;;6184659;23;20241;-73
2023/01/21 05:34:47;;;;;;;0.93;0.93;;;;;;;;;;6209773;23;20650;-74
2023/01/21 05:37:15;;;;;;;0.60;0.60;;;;;;;;;;6186100;23;20494;-72
2023/01/21 05:39:43;;;;;;;0.80;0.80;;;;;;;;;;6185724;23;20482;-72
2023/01/21 05:42:10;;;;;;;0.60;0.60;;;;;;;;;;6183452;23;20182;-74
2023/01/21 05:44:36;;;;;;;2.25;2.15;;;;;;;;;;6185849;23;20150;-74
2023/01/21 05:47:03;;;;;;;0.80;0.80;;;;;;;;;;6186081;23;20655;-72
2023/01/21 05:49:30;;;;;;;0.65;0.63;;;;;;;;;;6185501;23;20190;-73
2023/01/21 05:51:58;;;;;;;0.70;0.70;;;;;;;;;;6185856;23;20178;-73
2023/01/21 05:54:26;;;;;;;0.70;0.70;;;;;;;;;;6185918;23;20158;-73
2023/01/21 05:56:53;;;;;;;0.60;0.60;;;;;;;;;;6183955;23;20509;-72
2023/01/21 05:59:19;;;;;;;0.77;0.77;;;;;;;;;;6185719;23;20654;-73
2023/01/21 06:01:46;;;;;;;0.60;0.60;;;;;;;;;;6209097;23;20185;-73
2023/01/21 06:04:13;;;;;;;0.65;0.60;;;;;;;;;;6183909;23;20204;-73
2023/01/21 06:06:40;;;;;;;0.63;0.63;;;;;;;;;;6185633;23;20166;-73
2023/01/21 06:09:08;;;;;;;0.82;0.82;;;;;;;;;;6185242;23;20179;-73
2023/01/21 06:11:36;;;;;;;0.60;0.60;;;;;;;;;;6185978;23;20241;-75
2023/01/21 06:14:03;;;;;;;0.60;0.57;;;;;;;;;;6183340;23;20254;-73
2023/01/21 06:16:30;;;;;;;0.70;0.70;;;;;;;;;;6158689;23;20173;-75
2023/01/21 06:18:57;;;;;;;0.70;0.70;;;;;;;;;;6184433;23;20206;-74
2023/01/21 06:21:24;;;;;;;0.70;0.70;;;;;;;;;;6185485;23;20228;-74
2023/01/21 06:23:51;;;;;;;0.77;0.77;;;;;;;;;;6185659;23;20166;-74
2023/01/21 06:26:18;;;;;;;0.75;0.75;;;;;;;;;;6185546;23;20167;-74
2023/01/21 06:28:46;;;;;;;0.60;0.60;;;;;;;;;;6185460;23;20186;-74
2023/01/21 06:31:13;;;;;;;0.70;0.70;;;;;;;;;;6185380;23;20193;-75
2023/01/21 06:33:40;;;;;;;0.80;0.80;;;;;;;;;;6183473;23;20154;-75
2023/01/21 06:36:08;;;;;;;0.82;0.82;;;;;;;;;;6183927;23;20217;-73
2023/01/21 06:38:36;;;;;;;0.88;0.88;;;;;;;;;;6208673;23;20162;-73
2023/01/21 06:41:03;;;;;;;0.70;0.70;;;;;;;;;;6208741;23;20569;-73
2023/01/21 06:43:30;;;;;;;0.63;0.63;;;;;;;;;;6184219;23;20161;-73
2023/01/21 06:45:58;;;;;;;0.80;0.80;;;;;;;;;;6185228;23;20173;-73
2023/01/21 06:48:25;;;;;;;0.90;0.90;;;;;;;;;;6185529;23;20722;-73
2023/01/21 06:50:52;;;;;;;0.70;0.70;;;;;;;;;;6185307;23;20166;-73
2023/01/21 06:53:19;;;;;;;0.80;0.80;;;;;;;;;;6185507;23;20189;-73
2023/01/21 06:55:50;;;;;;;0.70;0.70;;;;;;;;;;6183217;23;20665;-73
2023/01/21 06:58:16;;;;;;;0.70;0.70;;;;;;;;;;6185049;23;20241;-73
2023/01/21 07:00:44;;;;;;;0.70;0.70;;;;;;;;;;6184507;23;20170;-75
2023/01/21 07:03:12;;;;;;;0.70;0.70;;;;;;;;;;6188525;23;20177;-74
2023/01/21 07:05:40;;;;;;;0.60;0.60;;;;;;;;;;6186029;23;20205;-75
2023/01/21 07:08:07;;;;;;;0.70;0.70;;;;;;;;;;6209459;23;20166;-74
2023/01/21 07:10:33;;;;;;;0.68;0.65;;;;;;;;;;6185958;23;20234;-75
2023/01/21 07:13:00;;;;;;;0.77;0.77;;;;;;;;;;6185380;23;20151;-75
2023/01/21 07:15:29;;;;;;;0.73;0.73;;;;;;;;;;6184588;23;20170;-75
2023/01/21 07:17:56;;;;;;;0.70;0.70;;;;;;;;;;6184818;23;20147;-75
2023/01/21 07:20:28;;;;;;;0.70;0.70;;;;;;;;;;6185223;23;20218;-76
2023/01/21 07:22:55;;;;;;;0.60;0.60;;;;;;;;;;6207745;23;20625;-75
2023/01/21 07:25:22;;;;;;;0.60;0.60;;;;;;;;;;6182548;23;20166;-74
2023/01/21 07:27:48;;;;;;;0.63;0.63;;;;;;;;;;6184510;23;20229;-75
2023/01/21 07:30:16;;;;;;;0.70;0.70;;;;;;;;;;6182750;23;20216;-75
2023/01/21 07:32:44;;;;;;;0.73;0.73;;;;;;;;;;6184158;23;20151;-75
2023/01/21 07:35:11;;;;;;;0.77;0.77;;;;;;;;;;6181767;23;20182;-75
2023/01/21 07:37:39;;;;;;;0.65;0.65;;;;;;;;;;6182125;23;20182;-75
2023/01/21 07:40:08;;;;;;;1.00;1.00;;;;;;;;;;6182144;23;20224;-76
2023/01/21 07:42:56;;;;;;;0.80;0.80;;;;;;;;;;6183190;23;20617;-74
2023/01/21 07:45:45;;;;;;;0.60;0.60;;;;;;;;;;6184188;23;20147;-74
2023/01/21 07:48:12;;;;;;;0.60;0.60;;;;;;;;;;6183874;23;20238;-74
2023/01/21 07:50:41;;;;;;;0.82;0.82;;;;;;;;;;6157557;23;20190;-76
2023/01/21 07:53:10;;;;;;;0.77;0.77;;;;;;;;;;6183108;23;20150;-75
2023/01/21 07:55:37;;;;;;;0.60;0.60;;;;;;;;;;6183054;23;20189;-73
2023/01/21 07:58:04;;;;;;;0.60;0.60;;;;;;;;;;6184189;23;20194;-74
2023/01/21 08:00:30;;;;;;;0.60;0.60;;;;;;;;;;6184794;23;20273;-74
2023/01/21 08:02:58;;;;;;;0.60;0.60;;;;;;;;;;6207408;23;20566;-74
2023/01/21 08:05:25;;;;;;;0.60;0.60;;;;;;;;;;6182013;23;20197;-74
2023/01/21 08:07:58;;;;;;;0.70;0.70;;;;;;;;;;6184145;23;20154;-74
2023/01/21 08:10:27;;;;;;;0.80;0.80;;;;;;;;;;6156181;23;20244;-75
2023/01/21 08:12:54;;;;;;;0.70;0.70;;;;;;;;;;6184180;23;20229;-74
2023/01/21 08:15:21;;;;;;;0.80;0.80;;;;;;;;;;6181711;23;20170;-76
2023/01/21 08:17:47;;;;;;;0.60;0.60;;;;;;;;;;6207671;23;20173;-75
2023/01/21 08:20:15;;;;;;;4.00;3.25;;;;;;;;;;6183788;23;20217;-75
2023/01/21 08:22:41;;;;;;;0.80;0.80;;;;;;;;;;6183876;23;20166;-73
2023/01/21 08:25:09;;;;;;;0.70;0.70;;;;;;;;;;6157661;23;20552;-73
2023/01/21 08:27:59;;;;;;;0.60;0.60;;;;;;;;;;6182668;23;20229;-74
2023/01/21 08:30:26;;;;;;;0.70;0.70;;;;;;;;;;6183390;23;20182;-74
2023/01/21 08:32:53;;;;;;;0.60;0.60;;;;;;;;;;6183489;23;20170;-73
2023/01/21 08:35:20;;;;;;;0.70;0.70;;;;;;;;;;6206572;23;20194;-74
2023/01/21 08:37:47;;;;;;;0.68;0.68;;;;;;;;;;6183644;23;20242;-75
2023/01/21 08:40:15;;;;;;;0.60;0.60;;;;;;;;;;6207015;23;20177;-75
2023/01/21 08:42:41;;;;;;;0.60;0.60;;;;;;;;;;6182477;23;20158;-75
2023/01/21 08:45:10;;;;;;;0.80;0.80;;;;;;;;;;6157144;23;20180;-75
2023/01/21 08:47:38;;;;;;;0.75;0.75;;;;;;;;;;6183002;23;20173;-74
2023/01/21 08:50:06;;;;;;;0.70;0.70;;;;;;;;;;6156899;23;20201;-74
2023/01/21 08:52:33;;;;;;;0.60;0.60;;;;;;;;;;6181696;23;20159;-74
2023/01/21 08:55:00;;;;;;;0.68;0.68;;;;;;;;;;6206515;23;20174;-74
2023/01/21 08:57:27;;;;;;;0.60;0.60;;;;;;;;;;6182927;23;20157;-74
2023/01/21 08:59:54;;;;;;;0.60;0.60;;;;;;;;;;6185650;23;20158;-74
2023/01/21 09:02:22;;;;;;;0.60;0.60;;;;;;;;;;6185689;23;20225;-74
2023/01/21 09:04:50;;;;;;;0.60;0.52;;;;;;;;;;6185499;23;20213;-73
2023/01/21 09:07:17;;;;;;;0.60;0.60;;;;;;;;;;6185221;23;20615;-74
2023/01/21 09:09:46;;;;;;;0.60;0.60;;;;;;;;;;6158831;23;20190;-74
2023/01/21 09:12:12;;;;;;;0.60;0.55;;;;;;;;;;6208879;23;20166;-74
2023/01/21 09:14:40;;;;;;;0.60;0.60;;;;;;;;;;6185526;23;20158;-74
2023/01/21 09:17:30;;;;;;;1.67;1.58;;;;;;;;;;6183324;23;20186;-74
2023/01/21 09:19:57;;;;;;;0.60;0.60;;;;;;;;;;6185666;23;20185;-73
2023/01/21 09:22:25;;;;;;;0.80;0.80;;;;;;;;;;6208876;23;20221;-72
2023/01/21 09:24:53;;;;;;;0.70;0.70;;;;;;;;;;6185859;23;20174;-72
2023/01/21 09:27:26;;;;;;;0.85;0.85;;;;;;;;;;6184958;23;20177;-73
2023/01/21 09:29:53;;;;;;;0.60;0.60;;;;;;;;;;6185547;23;20182;-73
2023/01/21 09:32:20;;;;;;;0.60;0.60;;;;;;;;;;6183536;23;20220;-72
2023/01/21 09:34:49;;;;;;;0.60;0.50;;;;;;;;;;6185219;23;20562;-72
2023/01/21 09:37:16;;;;;;;0.60;0.60;;;;;;;;;;6158608;23;20569;-73
2023/01/21 09:39:42;;;;;;;0.60;0.50;;;;;;;;;;6185586;23;20583;-73
2023/01/21 09:42:16;;;;;;;0.60;0.60;;;;;;;;;;6183352;23;20198;-72
2023/01/21 09:44:45;;;;;;;0.60;0.55;;;;;;;;;;6208652;23;20165;-74
2023/01/21 09:47:16;;;;;;;0.60;0.55;;;;;;;;;;6185423;23;20159;-73
2023/01/21 09:49:47;;;;;;;0.60;0.50;;;;;;;;;;6194295;23;20249;-73
2023/01/21 09:52:22;;;;;;;0.60;0.60;;;;;;;;;;6196272;23;20164;-74
2023/01/21 09:54:49;;;;;;;0.70;0.70;;;;;;;;;;6192835;23;20162;-72
2023/01/21 09:57:33;;;;;;;0.60;0.52;;;;;;;;;;6185005;23;20480;-73
2023/01/21 10:00:06;;;;;;;0.60;0.60;;;;;;;;;;6183965;23;20142;-73
2023/01/21 10:02:43;;;;;;;0.60;0.60;;;;;;;;;;6183963;23;20621;-72
2023/01/21 10:05:29;;;;;;;0.70;0.60;;;;;;;;;;6184871;23;20194;-73
2023/01/21 10:08:01;;;;;;;0.60;0.60;;;;;;;;;;6185126;23;20150;-72
2023/01/21 10:10:34;;;;;;;0.63;0.63;;;;;;;;;;6160208;23;20213;-73
2023/01/21 10:13:08;;;;;;;0.60;0.57;;;;;;;;;;6185073;23;20490;-72
2023/01/21 10:15:42;;;;;;;0.60;0.60;;;;;;;;;;6183239;23;20193;-73
2023/01/21 10:18:10;;;;;;;0.70;0.60;;;;;;;;;;6184820;23;20182;-72
2023/01/21 10:20:41;;;;;;;0.60;0.60;;;;;;;;;;6207930;23;20262;-71
2023/01/21 10:23:12;;;;;;;0.98;0.98;;;;;;;;;;6183315;23;20154;-73
2023/01/21 10:25:40;;;;;;;0.60;0.60;;;;;;;;;;6158697;23;20265;-71
2023/01/21 10:28:11;;;;;;;0.60;0.60;;;;;;;;;;6183434;23;20225;-74
2023/01/21 10:30:40;;;;;;;0.60;0.60;;;;;;;;;;6184955;23;20171;-73
2023/01/21 10:33:14;;;;;;;0.60;0.60;;;;;;;;;;6208045;23;20475;-73
2023/01/21 10:35:48;;;;;;;0.60;0.60;;;;;;;;;;6184773;23;20186;-73
2023/01/21 10:38:22;;;;;;;0.60;0.60;;;;;;;;;;6184812;23;20151;-73
2023/01/21 10:40:54;;;;;;;0.80;0.80;;;;;;;;;;6184922;23;20482;-73
2023/01/21 10:43:27;;;;;;;1.50;1.40;;;;;;;;;;6184933;23;20238;-73
2023/01/21 10:45:57;;;;;;;0.60;0.60;;;;;;;;;;6184591;23;20182;-72
2023/01/21 10:48:31;;;;;;;0.88;0.88;;;;;;;;;;6182979;23;20166;-71
2023/01/21 10:51:00;;;;;;;0.60;0.50;;;;;;;;;;6184163;23;20684;-73
2023/01/21 10:53:30;;;;;;;0.60;0.60;;;;;;;;;;6183258;23;20492;-74
2023/01/21 10:56:01;;;;;;;0.60;0.60;;;;;;;;;;6183062;23;20162;-72
2023/01/21 10:58:31;;;;;;;0.60;0.60;;;;;;;;;;6157881;23;20224;-72
2023/01/21 11:01:00;;;;;;;0.60;0.60;;;;;;;;;;6184853;23;20174;-73
2023/01/21 11:03:30;;;;;;;0.60;0.60;;;;;;;;;;6183178;23;20182;-73
2023/01/21 11:05:58;;;;;;;0.60;0.60;;;;;;;;;;6184547;23;20250;-73
2023/01/21 11:08:26;;;;;;;0.60;0.60;;;;;;;;;;6207500;23;20202;-70
2023/01/21 11:10:55;;;;;;;0.60;0.60;;;;;;;;;;6158001;23;20198;-71
2023/01/21 11:13:23;;;;;;;0.70;0.70;;;;;;;;;;6207850;23;20170;-72
2023/01/21 11:15:51;;;;;;;0.68;0.68;;;;;;;;;;6183660;23;20193;-73
2023/01/21 11:18:26;;;;;;;0.60;0.50;;;;;;;;;;6184757;23;20209;-73
2023/01/21 11:20:54;;;;;;;0.60;0.60;;;;;;;;;;6184730;23;20150;-73
2023/01/21 11:23:24;;;;;;;0.60;0.60;;;;;;;;;;6207602;23;20169;-73
2023/01/21 11:26:17;;;;;;;0.63;0.63;;;;;;;;;;6184796;23;20436;-71
2023/01/21 11:28:45;;;;;;;0.70;0.70;;;;;;;;;;6158344;23;20174;-73
2023/01/21 11:31:13;;;;;;;0.60;0.60;;;;;;;;;;6184141;23;20189;-72
2023/01/21 11:33:41;;;;;;;0.60;0.60;;;;;;;;;;6182757;23;20194;-74
2023/01/21 11:36:09;;;;;;;0.70;0.70;;;;;;;;;;6184267;23;20155;-72
2023/01/21 11:38:36;;;;;;;0.60;0.60;;;;;;;;;;6183555;23;20196;-74
2023/01/21 11:41:04;;;;;;;0.60;0.60;;;;;;;;;;6207558;23;20180;-72
2023/01/21 11:43:39;;;;;;;0.95;0.95;;;;;;;;;;6183876;23;20174;-71
2023/01/21 11:46:21;;;;;;;0.60;0.60;;;;;;;;;;6182089;23;20166;-72
2023/01/21 11:48:52;;;;;;;0.60;0.60;;;;;;;;;;6157624;23;20216;-73
2023/01/21 11:51:19;;;;;;;0.60;0.60;;;;;;;;;;6184074;23;20170;-73
2023/01/21 11:53:46;;;;;;;0.60;0.60;;;;;;;;;;6184251;23;20177;-73
2023/01/21 11:56:14;;;;;;;0.60;0.60;;;;;;;;;;6183631;23;20155;-72
2023/01/21 11:58:42;;;;;;;0.60;0.60;;;;;;;;;;6182672;23;20151;-72
2023/01/21 12:01:17;;;;;;;0.60;0.60;;;;;;;;;;6207243;23;20177;-73
2023/01/21 12:03:46;;;;;;;0.80;0.80;;;;;;;;;;6183565;23;20155;-72
2023/01/21 12:06:18;;;;;;;0.60;0.60;;;;;;;;;;6184671;23;20186;-72
2023/01/21 12:08:47;;;;;;;1.60;1.50;;;;;;;;;;6207476;23;20202;-72
2023/01/21 12:11:17;;;;;;;0.70;0.70;;;;;;;;;;6182823;23;20233;-72
2023/01/21 12:13:49;;;;;;;0.60;0.60;;;;;;;;;;6184337;23;20169;-73
2023/01/21 12:16:26;;;;;;;0.60;0.60;;;;;;;;;;6184674;23;20488;-72
2023/01/21 12:19:06;;;;;;;0.60;0.60;;;;;;;;;;6184655;23;20185;-73
2023/01/21 12:21:40;;;;;;;0.60;0.60;;;;;;;;;;6184162;23;20146;-72
2023/01/21 12:24:14;;;;;;;0.60;0.60;;;;;;;;;;6207808;23;20166;-71
2023/01/21 12:26:44;;;;;;;0.60;0.60;;;;;;;;;;6184421;23;20165;-72
2023/01/21 12:29:22;;;;;;;1.02;0.93;;;;;;;;;;6183139;23;20158;-71
2023/01/21 12:31:51;;;;;;;0.60;0.60;;;;;;;;;;6183069;23;20178;-74
2023/01/21 12:34:21;;;;;;;0.60;0.60;;;;;;;;;;6186446;23;20185;-74
2023/01/21 12:36:52;;;;;;;0.60;0.60;;;;;;;;;;6188085;23;20169;-72
2023/01/21 12:39:21;;;;;;;0.60;0.60;;;;;;;;;;6185933;23;20634;-73
2023/01/21 12:41:52;;;;;;;0.60;0.60;;;;;;;;;;6187588;23;20512;-72
2023/01/21 12:44:25;;;;;;;4.40;0.93;;;;;;;;;;6185478;23;20158;-71
2023/01/21 12:46:53;;;;;;;0.90;0.90;;;;;;;;;;6187268;23;20150;-73
2023/01/21 12:49:23;;;;;;;0.70;0.70;;;;;;;;;;6211035;23;20201;-72
2023/01/21 12:52:12;;;;;;;0.60;0.60;;;;;;;;;;6187841;23;20162;-71
2023/01/21 12:54:46;;;;;;;0.63;0.63;;;;;;;;;;6185909;23;20230;-71
2023/01/21 12:57:17;;;;;;;0.70;0.68;;;;;;;;;;6185574;23;20151;-72
2023/01/21 12:59:48;;;;;;;0.60;0.60;;;;;;;;;;6185752;23;20158;-74
2023/01/21 13:02:19;;;;;;;0.68;0.60;;;;;;;;;;6186383;23;20154;-72
2023/01/21 13:04:52;;;;;;;0.70;0.70;;;;;;;;;;6187331;23;20193;-72
2023/01/21 13:07:25;;;;;;;0.70;0.60;;;;;;;;;;6187730;23;20201;-71
2023/01/21 13:09:57;;;;;;;0.70;0.70;;;;;;;;;;6186401;23;20154;-73
2023/01/21 13:12:28;;;;;;;0.63;0.60;;;;;;;;;;6186109;23;20182;-73
2023/01/21 13:14:59;;;;;;;0.70;0.70;;;;;;;;;;6186170;23;20173;-74
2023/01/21 13:17:30;;;;;;;0.70;0.60;;;;;;;;;;6210379;23;20170;-73
2023/01/21 13:19:58;;;;;;;0.60;0.60;;;;;;;;;;6185989;23;20629;-72
2023/01/21 13:22:33;;;;;;;0.70;0.60;;;;;;;;;;6186989;23;20599;-74
2023/01/21 13:25:03;;;;;;;0.60;0.60;;;;;;;;;;6185228;23;20621;-72
2023/01/21 13:27:35;;;;;;;0.68;0.60;;;;;;;;;;6186333;23;20154;-73
2023/01/21 13:30:08;;;;;;;0.70;0.68;;;;;;;;;;6184317;23;20155;-73
2023/01/21 13:32:41;;;;;;;0.60;0.60;;;;;;;;;;6209939;23;20170;-72
2023/01/21 13:35:18;;;;;;;0.60;0.60;;;;;;;;;;6186094;23;20273;-74
2023/01/21 13:37:49;;;;;;;0.70;0.60;;;;;;;;;;6186042;23;20154;-73
2023/01/21 13:40:23;;;;;;;0.60;0.60;;;;;;;;;;6160878;23;20213;-73
2023/01/21 13:42:53;;;;;;;0.65;0.60;;;;;;;;;;6210606;23;20241;-72
2023/01/21 13:45:26;;;;;;;0.70;0.70;;;;;;;;;;6186352;23;20625;-72
2023/01/21 13:48:04;;;;;;;0.70;0.60;;;;;;;;;;6209593;23;20171;-73
2023/01/21 13:50:45;;;;;;;0.65;0.60;;;;;;;;;;6185756;23;20504;-72
2023/01/21 13:53:21;;;;;;;0.63;0.60;;;;;;;;;;6184288;23;20178;-72
2023/01/21 13:55:54;;;;;;;0.70;0.70;;;;;;;;;;6185272;23;20187;-72
2023/01/21 13:58:27;;;;;;;0.70;0.63;;;;;;;;;;6185974;23;20150;-72
2023/01/21 14:00:57;;;;;;;0.90;0.90;;;;;;;;;;6185922;23;20174;-73
2023/01/21 14:03:28;;;;;;;0.70;0.70;;;;;;;;;;6184321;23;20261;-74
2023/01/21 14:05:57;;;;;;;0.70;0.60;;;;;;;;;;6185943;23;20166;-74
2023/01/21 14:08:25;;;;;;;0.60;0.60;;;;;;;;;;6185652;23;20597;-73
2023/01/21 14:10:54;;;;;;;0.70;0.60;;;;;;;;;;6185463;23;20172;-72
2023/01/21 14:13:36;;;;;;;0.60;0.60;;;;;;;;;;6158937;23;20190;-72
2023/01/21 14:16:13;;;;;;;1.20;1.10;;;;;;;;;;6185792;23;20158;-72
2023/01/21 14:18:47;;;;;;;0.70;0.60;;;;;;;;;;6185153;23;20254;-73
2023/01/21 14:21:33;;;;;;;0.70;0.60;;;;;;;;;;6185612;23;20162;-72
2023/01/21 14:24:13;;;;;;;0.70;0.60;;;;;;;;;;6185247;23;20178;-74
2023/01/21 14:26:50;;;;;;;0.70;0.60;;;;;;;;;;6185300;23;20166;-73
2023/01/21 14:29:21;;;;;;;0.60;0.60;;;;;;;;;;6184273;23;20170;-73
2023/01/21 14:31:53;;;;;;;0.68;0.60;;;;;;;;;;6185527;23;20177;-72
2023/01/21 14:34:21;;;;;;;0.70;0.60;;;;;;;;;;6185507;23;20187;-73
2023/01/21 14:36:53;;;;;;;0.82;0.82;;;;;;;;;;6185407;23;20194;-74
2023/01/21 14:39:30;;;;;;;0.70;0.60;;;;;;;;;;6208945;23;20212;-72
2023/01/21 14:42:01;;;;;;;0.65;0.65;;;;;;;;;;6184409;23;20201;-73
2023/01/21 14:44:42;;;;;;;0.70;0.70;;;;;;;;;;6183672;23;20174;-71
2023/01/21 14:47:15;;;;;;;0.68;0.60;;;;;;;;;;6183823;23;20526;-72
2023/01/21 14:49:43;;;;;;;0.70;0.60;;;;;;;;;;6185128;23;20186;-74
2023/01/21 14:52:14;;;;;;;0.77;0.75;;;;;;;;;;6185097;23;20526;-73
2023/01/21 14:54:42;;;;;;;0.70;0.60;;;;;;;;;;6185368;23;20233;-74
2023/01/21 14:57:17;;;;;;;0.70;0.70;;;;;;;;;;6185609;23;20162;-72
2023/01/21 14:59:45;;;;;;;0.70;0.70;;;;;;;;;;6185330;23;20230;-73
2023/01/21 15:02:27;;;;;;;1.25;1.15;;;;;;;;;;6185108;23;20157;-72
2023/01/21 15:04:56;;;;;;;0.65;0.60;;;;;;;;;;6181184;23;20198;-72
2023/01/21 15:07:24;;;;;;;0.70;0.60;;;;;;;;;;6183653;23;20178;-73